Delta, Utah Weather observations

Data are for observation ending at time listed.
 Day   Time    Ave.   Ave.  Ave.  Vector   Max.   Stn.    Total    Solar   Ave.  
  of    of     Air    Rel.  Wind   Wind    Wind   Baro.  Precip.   Rad.    Soil  
Year   Day     Temp.  Hum.  Speed  Dir.    Gust   Pres.                    Temp. 
2015   (MST)    F      %     mph   deg.    mph     mb.     in.     W/m2     F   
------------------------------------------------------------------------------
  90    9:50   66.2    18    6.0   190     10.7   859.0    0.00     382    99999.0
  90   10:00   66.9    17    6.5   185     10.0   859.0    0.00     304    99999.0
  90   10:10   67.6    17    5.6   186      8.8   858.8    0.00     229    99999.0
  90   10:20   68.7    16    6.1   192     10.0   858.6    0.00     357    99999.0
  90   10:30   69.8    14    7.8   190     14.2   858.6    0.00     364    99999.0
  90   10:40   70.0    14    8.3   188     15.6   858.5    0.00     335    99999.0
  90   10:50   70.5    13    8.0   194     12.5   858.4    0.00     371    99999.0
  90   11:00   71.2    13    9.3   185     17.1   858.3    0.00     440    99999.0
  90   11:10   71.6    13    8.0   186     12.7   858.2    0.00     483    99999.0
  90   11:20   72.2    13    7.9   194     13.8   858.0    0.00     476    99999.0
  90   11:30   72.0    13    8.9   189     15.2   857.9    0.00     507    99999.0
  90   11:40   73.3    12    7.9   201     13.2   857.7    0.00     529    99999.0
  90   11:50   73.2    12    8.5   193     14.9   857.6    0.00     402    99999.0
  90   12:00   73.3    12    8.2   197     13.2   857.4    0.00     408    99999.0
  90   12:10   73.5    12    8.5   198     14.8   857.3    0.00     493    99999.0
  90   12:20   74.2    11    9.0   199     15.3   857.1    0.00     553    99999.0
  90   12:30   74.2    11    9.0   190     19.2   856.9    0.00     528    99999.0
  90   12:40   74.8    11   10.5   185     17.0   856.6    0.00     527    99999.0
  90   12:50   74.2    11   10.5   190     18.1   856.4    0.00     438    99999.0
  90   13:00   74.1    11    9.7   193     16.1   856.4    0.00     359    99999.0
  90   13:10   74.2    11   10.6   187     18.2   856.3    0.00     634    99999.0
  90   13:20   75.3    11   10.4   193     17.8   856.2    0.00     608    99999.0
  90   13:30   74.3    11   10.7   194     18.1   856.0    0.00     430    99999.0
  90   13:40   74.7    10    9.3   192     16.1   855.8    0.00     503    99999.0
  90   13:50   74.7    10    9.0   186     18.1   855.6    0.00     538    99999.0
  90   14:00   74.9    10    7.9   212     13.4   855.3    0.00     458    99999.0
  90   14:10   74.4    10    9.5   187     16.9   855.1    0.00     286    99999.0
  90   14:20   74.2    10    9.9   196     18.1   855.0    0.00     303    99999.0
  90   14:30   74.3    10    8.4   195     15.8   854.8    0.00     289    99999.0
  90   14:40   74.5    10    9.1   196     15.1   854.5    0.00     295    99999.0
  90   14:50   74.5    10    9.5   229     15.2   854.4    0.00     280    99999.0
  90   15:00   74.7    10    9.0   223     14.3   854.3    0.00     302    99999.0
  90   15:10   74.9    10    9.3   224     14.8   854.2    0.00     427    99999.0
  90   15:20   75.0    10    7.0   226     10.7   854.0    0.00     289    99999.0
  90   15:30   75.1    10    9.4   226     15.6   853.8    0.00     320    99999.0
  90   15:40   75.6    10    8.9   227     15.6   853.7    0.00     436    99999.0
  90   15:50   75.9    10    9.4   224     14.2   853.5    0.00     470    99999.0
  90   16:00   76.0    10    9.0   227     16.1   853.3    0.00     422    99999.0
  90   16:10   76.2    10    7.3   223     11.2   853.2    0.00     164    99999.0
  90   16:20   76.1    10    8.6   224     13.9   853.1    0.00      92    99999.0
  90   16:30   75.5    10    8.7   228     18.1   853.0    0.00     139    99999.0
  90   16:40   75.8    10    9.1   232     13.8   852.9    0.00     137    99999.0
  90   16:50   75.4    10    6.9   225     11.5   852.8    0.00     111    99999.0
  90   17:00   75.7    10    9.9   221     16.6   852.7    0.00     139    99999.0
  90   17:10   75.3    11    8.1   212     15.0   852.6    0.00     145    99999.0
  90   17:20   74.8    12   10.9   191     18.6   852.5    0.00      91    99999.0
  90   17:30   74.4    13   10.6   192     16.8   852.4    0.00     119    99999.0
  90   17:40   74.3    13   11.6   191     25.1   852.4    0.00     102    99999.0
  90   17:50   73.5    13   11.6   195     24.1   852.2    0.00      51    99999.0
  90   18:00   72.4    13   11.4   191     22.6   852.2    0.00      29    99999.0
  90   18:10   71.4    14    9.4   190     17.5   852.2    0.00      24    99999.0
  90   18:20   71.0    14    9.4   188     15.7   852.1    0.00      29    99999.0
  90   18:30   70.8    14    9.4   187     16.7   852.0    0.00      33    99999.0
  90   18:40   70.2    14    9.4   187     17.1   851.9    0.00      14    99999.0
  90   18:50   69.2    14    9.8   190     15.4   851.9    0.00       5    99999.0
  90   19:00   68.4    15    9.3   190     17.5   851.9    0.00       1    99999.0
  90   19:10   68.0    15    9.8   188     15.2   851.8    0.00       0    99999.0
  90   19:20   67.4    16    8.6   185     15.0   851.8    0.00       0    99999.0
  90   19:30   66.7    16    8.6   184     17.2   851.8    0.00       0    99999.0
  90   19:40   66.7    16    9.3   186     15.6   851.7    0.00       0    99999.0
  90   19:50   66.8    16    9.7   191     17.3   851.8    0.00       0    99999.0
  90   20:00   66.3    16    9.6   189     16.0   851.8    0.00       0    99999.0
  90   20:10   65.9    17    9.1   191     14.8   851.9    0.00       0    99999.0
  90   20:20   65.4    17    8.8   188     14.5   851.9    0.00       0    99999.0
  90   20:30   64.9    17    7.3   187     12.6   852.0    0.00       0    99999.0
  90   20:40   64.4    17    7.3   191     11.3   852.2    0.00       0    99999.0
  90   20:50   64.0    18    6.6   190     11.4   852.3    0.00       0    99999.0
  90   21:00   63.7    18    6.7   238     11.9   852.8    0.00       0    99999.0
  90   21:10   65.4    16    8.3   240     17.6   853.0    0.00       0    99999.0
  90   21:20   66.9    15    6.6   217     12.4   852.9    0.00       0    99999.0
  90   21:30   66.6    16    5.6   204     11.8   852.9    0.00       0    99999.0
  90   21:40   65.6    16    3.9   194      7.0   852.8    0.00       0    99999.0
  90   21:50   64.3    18    3.7   178      5.5   852.8    0.00       0    99999.0
  90   22:00   63.9    18    4.9   189      9.0   852.8    0.00       0    99999.0
  90   22:10   63.1    19    4.5   187      7.5   852.8    0.00       0    99999.0
  90   22:20   62.6    19    3.7   196      6.5   852.9    0.00       0    99999.0
  90   22:30   62.6    19    4.6   196      8.5   853.0    0.00       0    99999.0
  90   22:40   62.6    20    4.5   200      8.3   853.0    0.00       0    99999.0
  90   22:50   62.6    20    4.4   221      6.9   853.0    0.00       0    99999.0
  90   23:00   62.4    20    3.7   250      7.7   853.1    0.00       0    99999.0
  90   23:10   61.6    22    1.9   289      7.7   853.3    0.00       0    99999.0
  90   23:20   62.0    19    1.5   299      6.1   853.4    0.00       0    99999.0
  90   23:30   62.6    16    2.1   301      4.5   853.6    0.00       0    99999.0
  90   23:40   62.5    14    2.2   329      5.0   853.6    0.00       0    99999.0
  90   23:50   62.2    14    1.4   308      2.6   853.6    0.00       0    99999.0
  91    0:00   62.0    15    1.7     0      3.1   853.6    0.00       0    99999.0
  91    0:10   61.4    15    1.9   343      7.7   853.6    0.00       0    99999.0
  91    0:20   61.6    13    3.7   305     10.3   853.8    0.00       0    99999.0
  91    0:30   58.7    21    5.5   316     12.1   854.1    0.00       0    99999.0
  91    0:40   55.3    29    6.0   334     12.5   854.3    0.00       0    99999.0
  91    0:50   53.9    31    4.4   332      8.9   854.5    0.00       0    99999.0
  91    1:00   52.6    34    4.8   310     11.1   854.7    0.00       0    99999.0
  91    1:10   51.4    37    4.5   308      9.6   855.0    0.00       0    99999.0
  91    1:20   50.9    37    5.5   323     11.1   855.3    0.00       0    99999.0
  91    1:30   51.1    37    7.6   338     15.9   855.5    0.00       0    99999.0
  91    1:40   51.8    36    9.3   343     17.4   855.7    0.00       0    99999.0
  91    1:50   51.5    36    7.8   345     17.4   855.9    0.00       0    99999.0
  91    2:00   50.8    37    7.1   352     14.7   856.2    0.00       0    99999.0
  91    2:10   50.4    38    5.2   354     10.2   856.5    0.00       0    99999.0
  91    2:20   50.3    38    6.8   344     13.9   856.5    0.00       0    99999.0
  91    2:30   50.3    38    7.5   350     15.5   856.7    0.00       0    99999.0
  91    2:40   49.7    39    7.3   360     13.5   856.9    0.00       0    99999.0
  91    2:50   49.0    40    7.0   352     13.1   857.0    0.00       0    99999.0
  91    3:00   48.6    40    8.7   347     16.5   857.1    0.00       0    99999.0
  91    3:10   48.3    41    8.2   342     16.4   857.3    0.00       0    99999.0
  91    3:20   48.3    40    8.7   341     18.6   857.4    0.00       0    99999.0
  91    3:30   48.5    39    8.6   340     18.6   857.6    0.00       0    99999.0
  91    3:40   48.0    40    8.1   343     15.9   857.8    0.00       0    99999.0
  91    3:50   47.7    41    6.9   348     14.6   858.1    0.00       0    99999.0
  91    4:00   47.3    42    5.4   352      9.9   858.4    0.00       0    99999.0
  91    4:10   46.7    43    4.3   357      9.2   858.5    0.00       0    99999.0
  91    4:20   46.1    44    4.7   348      8.5   858.5    0.00       0    99999.0
  91    4:30   45.6    44    5.3   335      9.6   858.8    0.00       0    99999.0
  91    4:40   45.0    44    6.8   337     12.3   859.0    0.00       0    99999.0
  91    4:50   44.7    43    5.3   340     11.5   859.1    0.00       0    99999.0
  91    5:00   44.1    44    5.1   338     10.2   859.3    0.00       0    99999.0
  91    5:10   43.8    44    6.5   335     11.8   859.4    0.00       0    99999.0
  91    5:20   43.6    45    6.6   335     10.7   859.5    0.00       0    99999.0
  91    5:30   43.2    45    6.8   338     12.9   859.6    0.00       0    99999.0
  91    5:40   42.9    45    7.5   338     16.6   859.8    0.00       0    99999.0
  91    5:50   42.7    46    7.2   339     11.8   860.0    0.00       0    99999.0
  91    6:00   42.2    46    7.4   338     12.9   860.1    0.00       0    99999.0
  91    6:10   41.9    47    6.4   337     12.3   860.3    0.00       0    99999.0
  91    6:20   41.7    47    5.6   344     10.6   860.4    0.00       5    99999.0
  91    6:30   41.4    47    4.7     7      9.8   860.7    0.00      11    99999.0
  91    6:40   40.9    49    3.8    15      8.9   860.9    0.00      22    99999.0
  91    6:50   40.4    50    3.4    36      6.1   861.2    0.00      31    99999.0
  91    7:00   40.4    48    3.8     5      7.8   861.3    0.00      37    99999.0
  91    7:10   40.9    46    4.7   356      9.7   861.5    0.00      54    99999.0
  91    7:20   41.2    44    5.8   359     11.1   861.6    0.00      99    99999.0
  91    7:30   41.7    42    6.2   340     12.1   861.7    0.00     147    99999.0
  91    7:40   41.9    40    7.8   356     13.4   861.8    0.00     155    99999.0
  91    7:50   42.6    39    5.6     1     12.9   861.8    0.00     220    99999.0
  91    8:00   43.4    36    5.8     5     11.8   861.9    0.00     253    99999.0
  91    8:10   43.5    34    7.7   359     17.0   862.0    0.00     284    99999.0
  91    8:20   44.0    34    7.5     2     12.6   862.3    0.00     321    99999.0
  91    8:30   44.5    33    6.4   345     12.3   862.3    0.00     354    99999.0
  91    8:40   44.9    32    7.2   347     13.2   862.3    0.00     383    99999.0
  91    8:50   45.4    31    6.4   352     12.1   862.3    0.00     411    99999.0
  91    9:00   45.7    29    7.1   351     14.6   862.4    0.00     445    99999.0
  91    9:10   45.9    27    8.0   343     13.2   862.3    0.00     478    99999.0
  91    9:20   46.2    27    7.7   354     13.2   862.5    0.00     528    99999.0
  91    9:30   46.0    28    6.9   345     14.8   862.6    0.00     461    99999.0
  91    9:40   46.5    27    6.7   332     15.0   862.6    0.00     536    99999.0

Return to Delta, Utah graphs page.


Western Regional Climate Center,wrcc@dri.edu